createdAt,value
2023-03-25T00:01:46.990Z,13.58
2023-03-25T00:04:16.333Z,13.90
2023-03-25T00:06:44.254Z,13.93
2023-03-25T00:09:12.606Z,12.15
2023-03-25T00:11:40.227Z,10.85
2023-03-25T00:14:08.268Z,11.12
2023-03-25T00:16:36.424Z,13.83
2023-03-25T00:19:04.398Z,15.63
2023-03-25T00:21:33.019Z,13.88
2023-03-25T00:24:01.615Z,14.15
2023-03-25T00:26:31.720Z,23.12
2023-03-25T00:28:59.200Z,17.05
2023-03-25T00:31:26.948Z,14.58
2023-03-25T00:33:54.517Z,17.17
2023-03-25T00:36:22.225Z,12.88
2023-03-25T00:38:50.664Z,12.35
2023-03-25T00:41:27.697Z,12.10
2023-03-25T00:43:58.640Z,8.18
2023-03-25T00:46:30.133Z,10.48
2023-03-25T00:48:59.630Z,11.35
2023-03-25T00:51:30.699Z,9.63
2023-03-25T00:53:59.945Z,11.28
2023-03-25T00:56:30.794Z,10.18
2023-03-25T00:58:58.551Z,9.60
2023-03-25T01:01:28.093Z,13.95
2023-03-25T01:03:58.071Z,9.90
2023-03-25T01:06:34.205Z,10.18
2023-03-25T01:09:06.300Z,8.18
2023-03-25T01:11:37.270Z,9.58
2023-03-25T01:14:10.727Z,10.10
2023-03-25T01:19:07.916Z,11.25
2023-03-25T01:21:36.300Z,9.45
2023-03-25T01:24:06.014Z,13.58
2023-03-25T01:26:34.015Z,11.50
2023-03-25T01:29:01.532Z,11.70
2023-03-25T01:31:31.423Z,9.40
2023-03-25T01:34:00.231Z,9.53
2023-03-25T01:36:31.814Z,9.10
2023-03-25T01:39:00.843Z,7.62
2023-03-25T01:41:42.320Z,6.55
2023-03-25T01:44:23.673Z,6.87
2023-03-25T01:46:52.668Z,6.53
2023-03-25T01:49:29.518Z,7.42
2023-03-25T01:52:08.120Z,7.95
2023-03-25T01:54:38.145Z,7.55
2023-03-25T01:57:08.580Z,10.28
2023-03-25T01:59:38.139Z,10.20
2023-03-25T02:02:09.143Z,7.78
2023-03-25T02:04:44.904Z,7.55
2023-03-25T02:07:17.260Z,8.33
2023-03-25T02:09:52.149Z,9.93
2023-03-25T02:12:32.245Z,6.78
2023-03-25T02:15:08.123Z,7.67
2023-03-25T02:17:56.420Z,8.25
2023-03-25T02:20:46.811Z,8.65
2023-03-25T02:23:44.022Z,10.30
2023-03-25T02:26:36.997Z,9.05
2023-03-25T02:29:10.429Z,7.00
2023-03-25T02:31:52.193Z,9.93
2023-03-25T02:34:49.750Z,20.37
2023-03-25T02:37:26.124Z,9.90
2023-03-25T02:40:07.472Z,9.55
2023-03-25T02:42:40.173Z,10.35
2023-03-25T02:45:31.790Z,11.88
2023-03-25T02:48:10.865Z,9.30
2023-03-25T02:50:46.535Z,10.93
2023-03-25T02:53:25.648Z,10.55
2023-03-25T02:55:58.863Z,10.08
2023-03-25T03:00:58.564Z,9.53
2023-03-25T03:03:29.911Z,7.53
2023-03-25T03:06:04.587Z,7.03
2023-03-25T03:08:56.631Z,8.35
2023-03-25T03:11:54.357Z,10.48
2023-03-25T03:14:46.261Z,8.95
2023-03-25T03:17:26.266Z,10.55
2023-03-25T03:20:01.244Z,11.00
2023-03-25T03:22:47.236Z,10.68
2023-03-25T03:25:44.528Z,9.15
2023-03-25T03:28:33.621Z,9.43
2023-03-25T03:31:56.588Z,8.00
2023-03-25T03:34:04.780Z,10.55
2023-03-25T03:36:38.593Z,7.78
2023-03-25T03:39:16.491Z,17.17
2023-03-25T03:41:48.483Z,7.85
2023-03-25T03:44:20.751Z,7.87
2023-03-25T03:46:54.236Z,8.25
2023-03-25T03:49:29.989Z,7.92
2023-03-25T03:52:17.811Z,10.90
2023-03-25T03:54:50.443Z,8.98
2023-03-25T03:57:26.504Z,10.57
2023-03-25T04:00:16.684Z,7.67
2023-03-25T04:02:58.959Z,11.48
2023-03-25T04:05:32.017Z,20.08
2023-03-25T04:08:17.500Z,10.80
2023-03-25T04:10:59.603Z,6.37
2023-03-25T04:13:35.146Z,10.75
2023-03-25T04:16:04.166Z,9.70
2023-03-25T04:18:33.496Z,16.20
2023-03-25T04:21:02.149Z,9.38
2023-03-25T04:23:29.724Z,10.28
2023-03-25T04:25:59.688Z,9.40
2023-03-25T04:28:27.521Z,7.30
2023-03-25T04:30:56.431Z,7.50
2023-03-25T04:33:24.807Z,10.48
2023-03-25T04:35:53.510Z,14.78
2023-03-25T04:38:21.971Z,11.73
2023-03-25T04:40:50.107Z,12.55
2023-03-25T04:43:18.504Z,8.30
2023-03-25T04:45:51.714Z,9.58
2023-03-25T04:48:25.532Z,7.62
2023-03-25T04:53:23.291Z,12.18
2023-03-25T04:55:51.099Z,14.70
2023-03-25T04:58:19.231Z,22.65
2023-03-25T05:00:50.653Z,12.70
2023-03-25T05:03:21.241Z,14.60
2023-03-25T05:05:49.166Z,12.95
2023-03-25T05:08:17.792Z,12.88
2023-03-25T05:10:45.522Z,17.00
2023-03-25T05:13:13.372Z,19.82
2023-03-25T05:15:41.408Z,17.35
2023-03-25T05:18:13.197Z,16.27
2023-03-25T05:20:44.549Z,22.20
2023-03-25T05:23:15.388Z,26.37
2023-03-25T05:25:45.549Z,32.33
2023-03-25T05:28:14.217Z,28.60
2023-03-25T05:30:45.488Z,25.60
2023-03-25T05:33:16.745Z,26.25
2023-03-25T05:35:45.271Z,30.50
2023-03-25T05:38:17.583Z,34.23
2023-03-25T05:40:48.818Z,42.00
2023-03-25T05:43:17.042Z,33.73
2023-03-25T05:45:46.496Z,31.80
2023-03-25T05:48:14.028Z,23.50
2023-03-25T05:50:42.250Z,20.75
2023-03-25T05:53:16.548Z,19.67
2023-03-25T05:55:44.287Z,22.45
2023-03-25T05:58:12.245Z,23.98
2023-03-25T06:00:39.840Z,20.02
2023-03-25T06:03:07.966Z,24.02
2023-03-25T06:05:41.808Z,31.42
2023-03-25T06:10:36.894Z,64.27
2023-03-25T06:13:04.820Z,55.65
2023-03-25T06:15:37.239Z,41.73
2023-03-25T06:18:05.112Z,56.53
2023-03-25T06:20:33.042Z,30.27
2023-03-25T06:23:01.683Z,25.17
2023-03-25T06:25:30.874Z,24.72
2023-03-25T06:28:00.369Z,27.40
2023-03-25T06:30:28.160Z,29.30
2023-03-25T06:32:56.047Z,36.10
2023-03-25T06:35:23.688Z,31.60
2023-03-25T06:37:51.586Z,29.00
2023-03-25T06:40:23.816Z,25.27
2023-03-25T06:42:51.536Z,26.25
2023-03-25T06:45:21.078Z,25.35
2023-03-25T06:47:55.056Z,30.25
2023-03-25T06:50:22.829Z,29.98
2023-03-25T06:52:50.401Z,24.02
2023-03-25T06:55:17.981Z,22.62
2023-03-25T06:57:45.894Z,25.43
2023-03-25T07:00:14.168Z,28.23
2023-03-25T07:02:41.766Z,22.37
2023-03-25T07:05:10.273Z,30.80
2023-03-25T07:07:37.959Z,27.98
2023-03-25T07:10:07.052Z,29.63
2023-03-25T07:12:36.588Z,20.45
2023-03-25T07:15:05.362Z,14.87
2023-03-25T07:17:33.352Z,12.20
2023-03-25T07:20:01.086Z,11.22
2023-03-25T07:22:29.044Z,15.13
2023-03-25T07:24:58.214Z,11.40
2023-03-25T07:27:25.958Z,6.75
2023-03-25T07:29:58.046Z,7.83
2023-03-25T07:32:25.922Z,22.17
2023-03-25T07:34:53.735Z,9.08
2023-03-25T07:37:21.778Z,6.80
2023-03-25T07:39:49.650Z,9.85
2023-03-25T07:42:17.442Z,8.85
2023-03-25T07:45:06.983Z,10.88
2023-03-25T07:47:35.251Z,19.00
2023-03-25T07:50:03.842Z,12.00
2023-03-25T07:52:31.844Z,21.85
2023-03-25T07:55:00.509Z,16.75
2023-03-25T07:57:28.206Z,9.60
2023-03-25T07:59:56.187Z,10.53
2023-03-25T08:02:24.349Z,9.90
2023-03-25T08:04:53.922Z,8.43
2023-03-25T08:07:21.562Z,11.10
2023-03-25T08:09:49.216Z,9.40
2023-03-25T08:12:16.641Z,7.70
2023-03-25T08:14:45.942Z,11.22
2023-03-25T08:17:13.613Z,8.18
2023-03-25T08:19:41.300Z,10.98
2023-03-25T08:22:09.113Z,9.78
2023-03-25T08:24:36.990Z,8.38
2023-03-25T08:27:14.998Z,12.63
2023-03-25T08:29:34.680Z,9.65
2023-03-25T08:32:02.643Z,5.92
2023-03-25T08:34:32.242Z,6.08
2023-03-25T08:36:59.922Z,4.83
2023-03-25T08:39:29.331Z,7.60
2023-03-25T08:41:58.750Z,6.35
2023-03-25T08:44:26.532Z,5.45
2023-03-25T08:46:54.322Z,9.08
2023-03-25T08:49:22.211Z,10.70
2023-03-25T08:51:50.019Z,4.70
2023-03-25T08:54:17.766Z,5.97
2023-03-25T08:56:45.823Z,7.72
2023-03-25T08:59:13.528Z,5.72
2023-03-25T09:01:43.037Z,8.58
2023-03-25T09:04:11.796Z,5.08
2023-03-25T09:06:47.763Z,6.50
2023-03-25T09:09:13.017Z,4.05
2023-03-25T09:11:40.716Z,5.60
2023-03-25T09:14:08.480Z,34.08
2023-03-25T09:16:36.305Z,8.45
2023-03-25T09:19:06.086Z,6.55
2023-03-25T09:21:33.636Z,6.97
2023-03-25T09:24:01.452Z,5.22
2023-03-25T09:26:29.209Z,5.50
2023-03-25T09:28:56.871Z,6.60
2023-03-25T09:31:25.502Z,10.50
2023-03-25T09:33:52.999Z,8.48
2023-03-25T09:36:20.827Z,7.78
2023-03-25T09:38:48.586Z,5.50
2023-03-25T09:41:53.447Z,6.83
2023-03-25T09:44:32.357Z,5.58
2023-03-25T09:47:01.966Z,9.08
2023-03-25T09:49:38.261Z,5.85
2023-03-25T09:52:14.423Z,9.63
2023-03-25T09:54:50.552Z,8.23
2023-03-25T09:57:26.682Z,5.92
2023-03-25T09:59:56.370Z,7.25
2023-03-25T10:02:57.861Z,8.18
2023-03-25T10:05:52.516Z,6.05
2023-03-25T10:08:35.118Z,6.90
2023-03-25T10:11:20.599Z,7.65
2023-03-25T10:14:11.360Z,5.35
2023-03-25T10:16:53.446Z,6.80
2023-03-25T10:19:44.643Z,6.33
2023-03-25T10:22:29.521Z,8.13
2023-03-25T10:25:17.873Z,6.28
2023-03-25T10:27:49.388Z,6.67
2023-03-25T10:30:22.500Z,6.50
2023-03-25T10:32:57.158Z,6.97
2023-03-25T10:35:45.554Z,6.75
2023-03-25T10:38:22.896Z,8.68
2023-03-25T10:41:01.319Z,7.90
2023-03-25T10:43:39.540Z,9.73
2023-03-25T10:46:47.999Z,7.22
2023-03-25T10:49:21.032Z,7.53
2023-03-25T10:51:56.396Z,7.72
2023-03-25T10:54:29.243Z,9.40
2023-03-25T10:57:05.304Z,9.03
2023-03-25T10:59:53.992Z,11.70
2023-03-25T11:02:29.351Z,8.83
2023-03-25T11:05:06.093Z,9.30
2023-03-25T11:07:41.135Z,9.33
2023-03-25T11:10:19.910Z,9.95
2023-03-25T11:12:52.024Z,8.70
2023-03-25T11:15:35.469Z,9.43
2023-03-25T11:18:35.139Z,9.55
2023-03-25T11:21:17.531Z,8.73
2023-03-25T11:23:48.798Z,8.95
2023-03-25T11:26:23.798Z,7.85
2023-03-25T11:28:56.204Z,9.98
2023-03-25T11:31:27.005Z,10.00
2023-03-25T11:34:08.602Z,10.58
2023-03-25T11:36:55.476Z,10.30
2023-03-25T11:39:39.332Z,10.32
2023-03-25T11:42:28.396Z,10.30
2023-03-25T11:44:59.052Z,12.03
2023-03-25T11:47:36.433Z,11.78
2023-03-25T11:50:06.480Z,9.28
2023-03-25T11:52:44.638Z,11.53
2023-03-25T11:55:31.372Z,16.62
2023-03-25T11:58:01.644Z,11.57
2023-03-25T12:00:39.848Z,10.25
2023-03-25T12:03:20.736Z,9.65
2023-03-25T12:06:02.606Z,9.10
2023-03-25T12:08:47.669Z,9.63
2023-03-25T12:11:39.231Z,9.70
2023-03-25T12:14:50.773Z,8.83
2023-03-25T12:17:54.410Z,8.90
2023-03-25T12:20:42.939Z,10.00
2023-03-25T12:23:43.380Z,7.45
2023-03-25T12:26:49.860Z,10.08
2023-03-25T12:29:28.844Z,8.50
2023-03-25T12:32:13.838Z,8.85
2023-03-25T12:34:48.752Z,7.40
2023-03-25T12:37:41.418Z,8.98
2023-03-25T12:40:29.368Z,9.83
2023-03-25T12:43:28.107Z,11.45
2023-03-25T12:46:23.653Z,8.13
2023-03-25T12:49:15.440Z,12.40
2023-03-25T12:51:54.345Z,9.73
2023-03-25T12:55:02.353Z,8.93
2023-03-25T12:58:02.500Z,9.00
2023-03-25T13:00:47.522Z,11.45
2023-03-25T13:03:23.720Z,9.45
2023-03-25T13:06:05.690Z,9.93
2023-03-25T13:08:57.377Z,33.18
2023-03-25T13:11:33.596Z,18.35
2023-03-25T13:14:06.814Z,10.35
2023-03-25T13:16:37.961Z,10.45
2023-03-25T13:19:17.079Z,11.48
2023-03-25T13:21:53.140Z,11.40
2023-03-25T13:24:35.544Z,11.28
2023-03-25T13:27:05.688Z,8.45
2023-03-25T13:29:49.481Z,7.33
2023-03-25T13:32:42.819Z,8.33
2023-03-25T13:35:37.145Z,8.83
2023-03-25T13:38:19.621Z,8.75
2023-03-25T13:40:52.608Z,20.00
2023-03-25T13:43:32.912Z,8.30
2023-03-25T13:46:20.599Z,6.78
2023-03-25T13:49:02.238Z,7.85
2023-03-25T13:51:30.268Z,8.18
2023-03-25T13:54:18.306Z,8.40
2023-03-25T13:57:12.627Z,8.25
2023-03-25T14:00:14.152Z,10.85
2023-03-25T14:03:06.918Z,10.40
2023-03-25T14:06:09.327Z,8.55
2023-03-25T14:08:48.424Z,7.58
2023-03-25T14:11:27.691Z,6.53
2023-03-25T14:14:15.922Z,5.87
2023-03-25T14:16:48.826Z,10.68
2023-03-25T14:19:30.332Z,6.10
2023-03-25T14:21:58.661Z,9.45
2023-03-25T14:24:36.310Z,9.45
2023-03-25T14:27:28.982Z,8.38
2023-03-25T14:30:08.260Z,9.35
2023-03-25T14:32:39.581Z,9.90
2023-03-25T14:35:37.390Z,12.47
2023-03-25T14:38:13.621Z,7.60
2023-03-25T14:41:01.290Z,15.98
2023-03-25T14:43:35.285Z,18.40
2023-03-25T14:46:17.852Z,13.35
2023-03-25T14:48:53.977Z,12.07
2023-03-25T14:51:34.430Z,4.72
2023-03-25T14:54:20.600Z,5.20
2023-03-25T14:57:07.865Z,9.63
2023-03-25T14:59:43.243Z,5.20
2023-03-25T15:02:23.323Z,5.12
2023-03-25T15:05:05.981Z,6.00
2023-03-25T15:07:53.515Z,6.37
2023-03-25T15:10:29.772Z,5.67
2023-03-25T15:13:05.114Z,6.42
2023-03-25T15:15:51.689Z,8.83
2023-03-25T15:18:40.910Z,7.28
2023-03-25T15:21:12.869Z,5.80
2023-03-25T15:23:47.623Z,7.75
2023-03-25T15:26:34.805Z,6.25
2023-03-25T15:29:27.600Z,8.53
2023-03-25T15:32:20.484Z,6.15
2023-03-25T15:35:17.938Z,8.10
2023-03-25T15:38:02.995Z,8.90
2023-03-25T15:41:13.055Z,6.08
2023-03-25T15:44:02.896Z,6.87
2023-03-25T15:47:00.019Z,6.85
2023-03-25T15:50:08.912Z,7.15
2023-03-25T15:53:41.841Z,7.70
2023-03-25T15:56:10.196Z,5.75
2023-03-25T15:59:06.552Z,7.47
2023-03-25T16:01:38.138Z,4.72
2023-03-25T16:04:14.193Z,6.67
2023-03-25T16:06:49.089Z,5.87
2023-03-25T16:09:26.032Z,6.37
2023-03-25T16:12:02.292Z,6.35
2023-03-25T16:14:32.864Z,13.45
2023-03-25T16:17:03.874Z,6.78
2023-03-25T16:19:52.820Z,5.37
2023-03-25T16:22:27.856Z,2.72
2023-03-25T16:25:06.175Z,1.45
2023-03-25T16:27:40.207Z,2.22
2023-03-25T16:30:29.923Z,4.05
2023-03-25T16:33:13.282Z,1.40
2023-03-25T16:35:48.969Z,2.35
2023-03-25T16:38:21.199Z,2.05
2023-03-25T16:40:49.966Z,2.80
2023-03-25T16:43:26.749Z,2.35
2023-03-25T16:46:02.935Z,2.35
2023-03-25T16:48:40.449Z,2.42
2023-03-25T16:51:25.138Z,2.55
2023-03-25T16:53:55.661Z,2.17
2023-03-25T16:56:30.276Z,2.77
2023-03-25T16:59:29.280Z,3.25
2023-03-25T17:01:59.885Z,3.42
2023-03-25T17:04:38.761Z,3.40
2023-03-25T17:07:14.553Z,4.22
2023-03-25T17:09:44.276Z,3.98
2023-03-25T17:12:19.054Z,3.75
2023-03-25T17:14:49.741Z,5.05
2023-03-25T17:17:35.374Z,4.53
2023-03-25T17:20:17.478Z,5.95
2023-03-25T17:23:06.874Z,5.85
2023-03-25T17:25:53.323Z,4.05
2023-03-25T17:28:29.235Z,3.72
2023-03-25T17:30:57.508Z,4.28
2023-03-25T17:33:38.239Z,4.20
2023-03-25T17:36:11.995Z,3.02
2023-03-25T17:41:12.130Z,2.50
2023-03-25T17:43:47.896Z,2.90
2023-03-25T17:46:22.662Z,2.30
2023-03-25T17:48:52.873Z,2.77
2023-03-25T17:51:21.502Z,2.70
2023-03-25T17:53:49.515Z,2.90
2023-03-25T17:56:26.890Z,2.25
2023-03-25T17:59:00.046Z,2.22
2023-03-25T18:01:30.094Z,3.00
2023-03-25T18:03:58.220Z,4.20
2023-03-25T18:06:26.006Z,3.42
2023-03-25T18:08:54.169Z,3.72
2023-03-25T18:11:21.927Z,3.50
2023-03-25T18:13:49.956Z,3.87
2023-03-25T18:16:21.218Z,4.12
2023-03-25T18:18:49.097Z,3.25
2023-03-25T18:21:18.940Z,3.27
2023-03-25T18:23:48.119Z,3.22
2023-03-25T18:26:18.834Z,5.33
2023-03-25T18:28:47.996Z,15.75
2023-03-25T18:31:17.482Z,7.47
2023-03-25T18:33:51.002Z,43.28
2023-03-25T18:38:47.158Z,9.25
2023-03-25T18:41:16.786Z,12.30
2023-03-25T18:43:45.088Z,13.10
2023-03-25T18:46:14.641Z,9.18
2023-03-25T18:48:43.208Z,17.05
2023-03-25T18:51:13.116Z,12.68
2023-03-25T18:53:41.293Z,14.83
2023-03-25T18:56:09.689Z,31.33
2023-03-25T18:58:37.790Z,17.87
2023-03-25T19:01:11.586Z,39.05
2023-03-25T19:03:40.705Z,25.85
2023-03-25T19:06:11.901Z,36.40
2023-03-25T19:08:42.798Z,36.03
2023-03-25T19:11:20.039Z,28.50
2023-03-25T19:13:40.968Z,27.85
2023-03-25T19:16:09.519Z,32.98
2023-03-25T19:18:36.873Z,32.98
2023-03-25T19:21:05.564Z,36.98
2023-03-25T19:23:34.712Z,50.17
2023-03-25T19:26:02.825Z,59.25
2023-03-25T19:28:30.554Z,46.30
2023-03-25T19:31:00.992Z,47.10
2023-03-25T19:33:30.511Z,47.33
2023-03-25T19:36:00.632Z,48.60
2023-03-25T19:38:32.257Z,45.43
2023-03-25T19:41:08.364Z,45.98
2023-03-25T19:43:36.763Z,42.50
2023-03-25T19:46:06.401Z,44.98
2023-03-25T19:48:35.013Z,43.20
2023-03-25T19:51:03.893Z,48.35
2023-03-25T19:53:31.835Z,42.53
2023-03-25T19:56:04.894Z,45.00
2023-03-25T19:58:33.984Z,45.10
2023-03-25T20:01:01.791Z,44.85
2023-03-25T20:03:31.653Z,79.65
2023-03-25T20:06:01.770Z,66.35
2023-03-25T20:08:30.431Z,54.27
2023-03-25T20:10:58.577Z,120.30
2023-03-25T20:13:26.694Z,67.58
2023-03-25T20:15:55.079Z,85.75
2023-03-25T20:18:23.161Z,72.30
2023-03-25T20:20:50.932Z,58.85
2023-03-25T20:23:18.526Z,59.80
2023-03-25T20:25:46.951Z,52.67
2023-03-25T20:28:14.668Z,45.48
2023-03-25T20:30:42.270Z,43.15
2023-03-25T20:33:10.679Z,44.70
2023-03-25T20:35:38.370Z,45.05
2023-03-25T20:38:06.048Z,52.73
2023-03-25T20:40:43.954Z,43.95
2023-03-25T20:43:06.093Z,32.53
2023-03-25T20:45:34.098Z,31.82
2023-03-25T20:48:03.278Z,30.82
2023-03-25T20:50:31.886Z,26.80
2023-03-25T20:52:59.648Z,21.93
2023-03-25T20:55:27.342Z,19.42
2023-03-25T20:57:55.188Z,25.15
2023-03-25T21:00:22.872Z,20.12
2023-03-25T21:02:51.830Z,19.27
2023-03-25T21:05:19.437Z,23.62
2023-03-25T21:07:47.828Z,24.47
2023-03-25T21:10:16.417Z,16.82
2023-03-25T21:12:45.033Z,13.98
2023-03-25T21:15:15.312Z,10.10
2023-03-25T21:17:43.735Z,8.98
2023-03-25T21:20:12.482Z,9.20
2023-03-25T21:22:44.630Z,11.08
2023-03-25T21:25:14.236Z,9.20
2023-03-25T21:27:44.405Z,8.78
2023-03-25T21:30:13.469Z,8.33
2023-03-25T21:32:41.456Z,9.88
2023-03-25T21:35:09.996Z,7.62
2023-03-25T21:37:38.261Z,8.98
2023-03-25T21:40:09.771Z,8.75
2023-03-25T21:42:38.087Z,12.25
2023-03-25T21:45:08.339Z,11.12
2023-03-25T21:47:36.561Z,11.38
2023-03-25T21:50:08.752Z,12.20
2023-03-25T21:52:37.876Z,12.45
2023-03-25T21:55:07.506Z,9.45
2023-03-25T21:57:37.106Z,8.85
2023-03-25T22:00:09.147Z,9.98
2023-03-25T22:02:45.146Z,7.33
2023-03-25T22:05:15.667Z,6.72
2023-03-25T22:07:44.199Z,6.30
2023-03-25T22:10:12.106Z,9.13
2023-03-25T22:12:40.051Z,6.47
2023-03-25T22:15:09.568Z,8.80
2023-03-25T22:17:37.087Z,6.72
2023-03-25T22:20:06.473Z,7.60
2023-03-25T22:22:35.966Z,10.48
2023-03-25T22:25:04.416Z,9.45
2023-03-25T22:27:32.008Z,7.15
2023-03-25T22:30:00.720Z,11.20
2023-03-25T22:32:28.548Z,68.40
2023-03-25T22:34:56.103Z,13.32
2023-03-25T22:37:24.154Z,13.30
2023-03-25T22:39:51.755Z,21.80
2023-03-25T22:42:19.848Z,31.33
2023-03-25T22:44:47.843Z,24.10
2023-03-25T22:47:15.625Z,35.70
2023-03-25T22:49:43.346Z,12.98
2023-03-25T22:52:11.937Z,11.00
2023-03-25T22:54:39.677Z,13.38
2023-03-25T22:57:07.325Z,11.88
2023-03-25T22:59:35.019Z,12.58
2023-03-25T23:02:02.729Z,12.45
2023-03-25T23:04:30.343Z,11.45
2023-03-25T23:07:07.236Z,9.93
2023-03-25T23:09:44.555Z,10.03
2023-03-25T23:12:16.394Z,16.80
2023-03-25T23:14:51.754Z,15.00
2023-03-25T23:17:20.498Z,11.15
2023-03-25T23:19:48.736Z,10.15
2023-03-25T23:22:16.705Z,10.93
2023-03-25T23:24:45.256Z,10.85
2023-03-25T23:27:13.447Z,13.58
2023-03-25T23:29:41.286Z,11.93
2023-03-25T23:32:10.403Z,12.78
2023-03-25T23:34:39.577Z,37.30
2023-03-25T23:37:08.615Z,42.75
2023-03-25T23:39:39.061Z,36.25
2023-03-25T23:42:06.760Z,18.92
2023-03-25T23:44:35.750Z,17.67
2023-03-25T23:47:03.922Z,16.50
2023-03-25T23:49:32.766Z,16.12
2023-03-25T23:52:00.582Z,16.65
2023-03-25T23:54:28.864Z,11.85
2023-03-25T23:56:57.521Z,11.60
2023-03-25T23:59:25.242Z,11.08
